createdAt,value
2022-12-31T00:01:10.876Z,59.73
2022-12-31T00:03:57.721Z,59.64
2022-12-31T00:06:43.584Z,59.56
2022-12-31T00:09:29.544Z,59.81
2022-12-31T00:12:15.324Z,59.46
2022-12-31T00:15:01.099Z,59.40
2022-12-31T00:17:47.106Z,59.57
2022-12-31T00:20:33.207Z,59.87
2022-12-31T00:23:19.466Z,60.03
2022-12-31T00:26:11.917Z,59.59
2022-12-31T00:28:58.993Z,59.98
2022-12-31T00:31:46.282Z,59.70
2022-12-31T00:34:32.102Z,59.54
2022-12-31T00:37:17.948Z,59.55
2022-12-31T00:40:04.681Z,60.10
2022-12-31T00:42:51.007Z,59.68
2022-12-31T00:45:37.013Z,59.65
2022-12-31T00:48:23.135Z,59.85
2022-12-31T00:51:11.672Z,60.13
2022-12-31T00:53:57.820Z,59.63
2022-12-31T00:56:43.711Z,59.77
2022-12-31T00:59:29.628Z,59.72
2022-12-31T01:02:15.574Z,59.85
2022-12-31T01:05:01.937Z,60.29
2022-12-31T01:07:47.812Z,59.89
2022-12-31T01:10:52.251Z,60.05
2022-12-31T01:13:38.167Z,59.98
2022-12-31T01:16:26.753Z,60.06
2022-12-31T01:19:34.429Z,59.63
2022-12-31T01:22:20.229Z,59.97
2022-12-31T01:25:06.795Z,60.25
2022-12-31T01:27:52.688Z,59.81
2022-12-31T01:30:40.168Z,60.01
2022-12-31T01:33:26.243Z,60.06
2022-12-31T01:36:21.857Z,60.42
2022-12-31T01:39:11.134Z,60.39
2022-12-31T01:41:58.061Z,60.15
2022-12-31T01:44:55.434Z,60.06
2022-12-31T01:47:49.066Z,60.22
2022-12-31T01:50:36.494Z,60.15
2022-12-31T01:53:22.416Z,60.01
2022-12-31T01:56:08.232Z,60.12
2022-12-31T01:58:56.032Z,60.18
2022-12-31T02:01:42.540Z,59.93
2022-12-31T02:04:29.154Z,60.08
2022-12-31T02:07:15.181Z,59.99
2022-12-31T02:10:01.365Z,59.99
2022-12-31T02:12:48.307Z,59.85
2022-12-31T02:15:40.326Z,59.92
2022-12-31T02:18:38.773Z,59.70
2022-12-31T02:21:45.465Z,60.34
2022-12-31T02:24:58.990Z,60.24
2022-12-31T02:27:49.740Z,59.72
2022-12-31T02:30:37.411Z,59.83
2022-12-31T02:33:30.142Z,60.17
2022-12-31T02:36:21.132Z,59.68
2022-12-31T02:39:07.816Z,59.85
2022-12-31T02:41:53.983Z,59.99
2022-12-31T02:44:41.874Z,60.00
2022-12-31T02:47:42.758Z,59.92
2022-12-31T02:51:00.637Z,59.85
2022-12-31T02:53:53.057Z,59.68
2022-12-31T02:57:14.154Z,59.90
2022-12-31T03:00:33.219Z,60.33
2022-12-31T03:03:20.629Z,60.04
2022-12-31T03:06:08.415Z,60.21
2022-12-31T03:09:12.821Z,59.95
2022-12-31T03:12:18.054Z,59.86
2022-12-31T03:15:06.779Z,59.88
2022-12-31T03:18:11.996Z,59.85
2022-12-31T03:21:16.229Z,59.72
2022-12-31T03:24:20.955Z,59.89
2022-12-31T03:27:06.751Z,60.13
2022-12-31T03:29:52.901Z,60.06
2022-12-31T03:32:39.139Z,59.85
2022-12-31T03:35:26.988Z,59.86
2022-12-31T03:38:13.769Z,59.89
2022-12-31T03:40:59.716Z,59.93
2022-12-31T03:43:45.805Z,59.87
2022-12-31T03:46:31.643Z,60.14
2022-12-31T03:49:17.612Z,59.80
2022-12-31T03:52:03.650Z,60.02
2022-12-31T03:54:49.354Z,60.00
2022-12-31T03:57:35.255Z,59.96
2022-12-31T04:00:21.922Z,60.09
2022-12-31T04:03:08.096Z,60.16
2022-12-31T04:05:55.551Z,60.34
2022-12-31T04:08:41.357Z,60.28
2022-12-31T04:11:27.377Z,60.19
2022-12-31T04:14:13.171Z,59.73
2022-12-31T04:16:59.296Z,59.73
2022-12-31T04:19:45.270Z,60.04
2022-12-31T04:22:31.066Z,59.84
2022-12-31T04:25:16.829Z,59.95
2022-12-31T04:28:03.483Z,60.24
2022-12-31T04:30:49.458Z,60.19
2022-12-31T04:33:35.752Z,59.94
2022-12-31T04:36:22.034Z,59.69
2022-12-31T04:39:08.060Z,59.92
2022-12-31T04:41:54.398Z,59.70
2022-12-31T04:44:40.367Z,60.15
2022-12-31T04:47:26.367Z,59.86
2022-12-31T04:50:12.277Z,59.50
2022-12-31T04:52:57.962Z,60.04
2022-12-31T04:55:45.413Z,60.07
2022-12-31T04:58:31.684Z,60.02
2022-12-31T05:01:17.988Z,59.94
2022-12-31T05:04:04.706Z,59.43
2022-12-31T05:06:50.803Z,59.79
2022-12-31T05:09:36.868Z,60.06
2022-12-31T05:12:22.959Z,60.05
2022-12-31T05:15:09.415Z,60.00
2022-12-31T05:17:55.299Z,60.15
2022-12-31T05:20:41.219Z,60.09
2022-12-31T05:23:27.477Z,60.20
2022-12-31T05:26:13.515Z,59.73
2022-12-31T05:29:00.510Z,60.34
2022-12-31T05:31:46.215Z,59.79
2022-12-31T05:34:32.081Z,59.85
2022-12-31T05:37:18.119Z,60.00
2022-12-31T05:40:04.735Z,59.82
2022-12-31T05:42:50.899Z,60.12
2022-12-31T05:45:37.186Z,60.03
2022-12-31T05:48:23.096Z,60.50
2022-12-31T05:51:08.826Z,59.92
2022-12-31T05:53:54.652Z,60.42
2022-12-31T05:56:40.973Z,60.36
2022-12-31T05:59:26.855Z,60.10
2022-12-31T06:02:12.835Z,60.27
2022-12-31T06:04:58.461Z,60.37
2022-12-31T06:07:44.574Z,60.00
2022-12-31T06:10:30.401Z,60.19
2022-12-31T06:13:16.485Z,60.52
2022-12-31T06:16:07.351Z,60.53
2022-12-31T06:18:53.737Z,60.18
2022-12-31T06:21:40.040Z,60.18
2022-12-31T06:24:26.624Z,60.14
2022-12-31T06:27:12.924Z,59.99
2022-12-31T06:29:59.016Z,60.38
2022-12-31T06:32:45.875Z,60.55
2022-12-31T06:35:31.898Z,60.27
2022-12-31T06:38:17.818Z,60.44
2022-12-31T06:41:04.839Z,60.04
2022-12-31T06:43:50.665Z,60.53
2022-12-31T06:46:36.706Z,60.50
2022-12-31T06:49:22.562Z,60.14
2022-12-31T06:52:08.515Z,59.99
2022-12-31T06:54:54.870Z,60.58
2022-12-31T06:57:41.258Z,60.30
2022-12-31T07:00:27.831Z,60.10
2022-12-31T07:03:19.623Z,60.08
2022-12-31T07:06:28.371Z,60.18
2022-12-31T07:09:40.249Z,60.80
2022-12-31T07:12:38.214Z,60.31
2022-12-31T07:15:33.338Z,60.77
2022-12-31T07:18:25.634Z,60.07
2022-12-31T07:21:13.764Z,60.94
2022-12-31T07:24:00.027Z,60.72
2022-12-31T07:26:58.038Z,60.52
2022-12-31T07:30:14.468Z,60.61
2022-12-31T07:33:15.526Z,60.37
2022-12-31T07:36:26.380Z,60.56
2022-12-31T07:39:25.876Z,60.55
2022-12-31T07:42:37.801Z,60.37
2022-12-31T07:45:42.288Z,60.23
2022-12-31T07:48:29.301Z,60.62
2022-12-31T07:51:15.765Z,60.70
2022-12-31T07:54:01.682Z,60.23
2022-12-31T07:56:48.273Z,60.83
2022-12-31T07:59:51.921Z,60.79
2022-12-31T08:02:57.168Z,60.66
2022-12-31T08:06:24.929Z,60.60
2022-12-31T08:09:37.341Z,60.62
2022-12-31T08:12:23.638Z,60.70
2022-12-31T08:15:15.044Z,60.32
2022-12-31T08:18:01.082Z,60.58
2022-12-31T08:21:10.761Z,60.47
2022-12-31T08:24:22.633Z,60.62
2022-12-31T08:27:28.420Z,60.59
2022-12-31T08:30:16.844Z,60.11
2022-12-31T08:33:11.345Z,60.43
2022-12-31T08:36:16.216Z,60.29
2022-12-31T08:39:13.963Z,60.09
2022-12-31T08:42:03.517Z,60.61
2022-12-31T08:45:12.297Z,60.39
2022-12-31T08:48:35.243Z,60.45
2022-12-31T08:51:23.863Z,60.32
2022-12-31T08:54:13.365Z,60.34
2022-12-31T08:57:13.427Z,60.33
2022-12-31T09:00:07.485Z,60.42
2022-12-31T09:03:31.182Z,60.57
2022-12-31T09:07:00.332Z,60.58
2022-12-31T09:09:46.159Z,60.34
2022-12-31T09:12:35.011Z,60.42
2022-12-31T09:15:21.001Z,60.43
2022-12-31T09:18:08.863Z,60.15
2022-12-31T09:20:54.864Z,60.59
2022-12-31T09:23:41.299Z,60.08
2022-12-31T09:26:49.012Z,60.46
2022-12-31T09:29:41.556Z,60.08
2022-12-31T09:32:40.433Z,59.91
2022-12-31T09:35:26.387Z,60.27
2022-12-31T09:38:28.898Z,60.48
2022-12-31T09:41:36.949Z,60.12
2022-12-31T09:45:10.340Z,60.40
2022-12-31T09:48:36.241Z,60.20
2022-12-31T09:51:33.149Z,60.15
2022-12-31T09:54:22.028Z,60.14
2022-12-31T09:57:08.069Z,60.13
2022-12-31T10:00:11.062Z,60.17
2022-12-31T10:03:00.111Z,59.64
2022-12-31T10:05:53.173Z,59.98
2022-12-31T10:09:06.976Z,60.05
2022-12-31T10:12:20.624Z,60.23
2022-12-31T10:15:34.711Z,59.85
2022-12-31T10:18:59.764Z,59.80
2022-12-31T10:22:00.892Z,59.93
2022-12-31T10:25:20.693Z,59.93
2022-12-31T10:28:30.973Z,60.09
2022-12-31T10:31:16.913Z,60.45
2022-12-31T10:34:13.699Z,59.75
2022-12-31T10:37:20.462Z,59.96
2022-12-31T10:40:09.432Z,59.94
2022-12-31T10:42:55.202Z,59.93
2022-12-31T10:46:19.144Z,60.15
2022-12-31T10:49:24.209Z,59.64
2022-12-31T10:52:28.918Z,59.98
2022-12-31T10:55:39.298Z,59.87
2022-12-31T10:58:52.791Z,59.27
2022-12-31T11:01:57.273Z,59.87
2022-12-31T11:05:24.132Z,59.86
2022-12-31T11:08:33.900Z,59.91
2022-12-31T11:11:19.786Z,59.62
2022-12-31T11:14:23.828Z,59.93
2022-12-31T11:17:16.593Z,59.47
2022-12-31T11:20:27.557Z,59.24
2022-12-31T11:23:37.674Z,59.86
2022-12-31T11:26:32.700Z,59.75
2022-12-31T11:29:37.683Z,59.97
2022-12-31T11:32:32.464Z,59.30
2022-12-31T11:35:41.598Z,59.32
2022-12-31T11:38:41.256Z,59.51
2022-12-31T11:41:44.003Z,59.52
2022-12-31T11:44:48.960Z,59.97
2022-12-31T11:48:29.817Z,59.41
2022-12-31T11:51:28.237Z,59.78
2022-12-31T11:54:24.908Z,59.74
2022-12-31T11:57:16.663Z,59.44
2022-12-31T12:00:23.835Z,59.51
2022-12-31T12:03:11.008Z,59.61
2022-12-31T12:05:57.684Z,59.70
2022-12-31T12:08:44.561Z,59.68
2022-12-31T12:11:33.300Z,59.68
2022-12-31T12:14:20.175Z,59.45
2022-12-31T12:17:15.789Z,59.62
2022-12-31T12:20:05.010Z,59.77
2022-12-31T12:22:53.497Z,59.84
2022-12-31T12:25:42.277Z,59.63
2022-12-31T12:28:30.854Z,59.60
2022-12-31T12:31:22.728Z,59.92
2022-12-31T12:34:25.119Z,59.77
2022-12-31T12:37:23.945Z,59.76
2022-12-31T12:40:21.819Z,59.54
2022-12-31T12:43:23.248Z,59.54
2022-12-31T12:46:32.140Z,59.64
2022-12-31T12:49:29.819Z,59.25
2022-12-31T12:52:22.193Z,59.24
2022-12-31T12:55:17.159Z,59.38
2022-12-31T12:58:26.571Z,59.75
2022-12-31T13:01:37.945Z,61.67
2022-12-31T13:04:34.591Z,61.99
2022-12-31T13:07:45.722Z,61.58
2022-12-31T13:10:42.400Z,55.71
2022-12-31T13:13:38.114Z,49.70
2022-12-31T13:16:42.604Z,45.38
2022-12-31T13:19:34.216Z,42.29
2022-12-31T13:22:27.607Z,39.35
2022-12-31T13:25:43.249Z,38.39
2022-12-31T13:28:30.910Z,36.68
2022-12-31T13:31:30.294Z,37.51
2022-12-31T13:34:21.488Z,36.53
2022-12-31T13:37:37.819Z,37.08
2022-12-31T13:40:46.670Z,37.25
2022-12-31T13:43:38.476Z,37.10
2022-12-31T13:46:44.010Z,38.03
2022-12-31T13:49:34.912Z,38.80
2022-12-31T13:52:36.814Z,40.21
2022-12-31T13:55:31.636Z,41.31
2022-12-31T13:58:31.704Z,42.25
2022-12-31T14:01:32.093Z,43.09
2022-12-31T14:04:59.508Z,44.23
2022-12-31T14:07:56.170Z,44.79
2022-12-31T14:11:05.509Z,45.33
2022-12-31T14:14:00.376Z,45.99
2022-12-31T14:16:53.964Z,46.39
2022-12-31T14:20:01.614Z,46.65
2022-12-31T14:23:20.078Z,47.01
2022-12-31T14:26:07.556Z,47.36
2022-12-31T14:29:09.231Z,47.72
2022-12-31T14:32:03.545Z,47.99
2022-12-31T14:34:53.015Z,48.12
2022-12-31T14:37:41.854Z,48.35
2022-12-31T14:40:51.162Z,48.48
2022-12-31T14:43:58.172Z,48.62
2022-12-31T14:47:00.157Z,48.71
2022-12-31T14:49:58.143Z,48.83
2022-12-31T14:52:49.170Z,48.96
2022-12-31T14:55:37.101Z,49.18
2022-12-31T14:58:29.802Z,49.20
2022-12-31T15:01:15.910Z,48.98
2022-12-31T15:04:01.679Z,49.54
2022-12-31T15:06:55.319Z,49.73
2022-12-31T15:09:54.552Z,49.84
2022-12-31T15:12:58.841Z,49.66
2022-12-31T15:16:08.442Z,49.85
2022-12-31T15:19:19.364Z,49.96
2022-12-31T15:22:17.377Z,50.01
2022-12-31T15:25:04.644Z,50.18
2022-12-31T15:27:50.705Z,49.98
2022-12-31T15:30:44.925Z,50.13
2022-12-31T15:33:40.233Z,50.45
2022-12-31T15:36:29.723Z,50.42
2022-12-31T15:39:16.924Z,50.32
2022-12-31T15:42:36.672Z,50.32
2022-12-31T15:45:17.286Z,50.71
2022-12-31T15:48:08.574Z,50.72
2022-12-31T15:50:58.086Z,50.67
2022-12-31T15:53:52.449Z,50.71
2022-12-31T15:56:45.322Z,50.69
2022-12-31T15:59:31.780Z,50.94
2022-12-31T16:02:23.812Z,50.93
2022-12-31T16:05:25.337Z,51.15
2022-12-31T16:08:19.848Z,50.98
2022-12-31T16:11:07.988Z,51.20
2022-12-31T16:13:54.989Z,51.00
2022-12-31T16:16:51.825Z,50.86
2022-12-31T16:19:46.249Z,51.06
2022-12-31T16:22:39.670Z,51.33
2022-12-31T16:25:31.114Z,50.95
2022-12-31T16:28:28.410Z,51.12
2022-12-31T16:31:17.715Z,51.09
2022-12-31T16:34:12.841Z,51.59
2022-12-31T16:37:07.596Z,51.65
2022-12-31T16:39:56.736Z,51.50
2022-12-31T16:42:44.579Z,51.19
2022-12-31T16:45:35.853Z,51.66
2022-12-31T16:48:22.130Z,51.64
2022-12-31T16:51:16.797Z,51.75
2022-12-31T16:54:03.704Z,51.73
2022-12-31T16:56:50.053Z,51.63
2022-12-31T16:59:41.647Z,51.61
2022-12-31T17:02:36.515Z,52.19
2022-12-31T17:05:26.410Z,51.96
2022-12-31T17:08:29.669Z,52.23
2022-12-31T17:11:31.362Z,52.11
2022-12-31T17:14:20.060Z,52.23
2022-12-31T17:17:07.584Z,52.15
2022-12-31T17:19:58.528Z,52.24
2022-12-31T17:22:44.820Z,52.05
2022-12-31T17:25:32.896Z,52.02
2022-12-31T17:28:24.262Z,52.33
2022-12-31T17:31:32.139Z,52.31
2022-12-31T17:34:21.709Z,52.29
2022-12-31T17:37:11.577Z,52.00
2022-12-31T17:40:40.583Z,52.56
2022-12-31T17:43:11.540Z,52.42
2022-12-31T17:45:57.355Z,52.64
2022-12-31T17:48:45.192Z,52.43
2022-12-31T17:51:30.963Z,52.43
2022-12-31T17:54:17.643Z,52.34
2022-12-31T17:57:03.886Z,52.33
2022-12-31T17:59:49.933Z,52.76
2022-12-31T18:02:35.966Z,52.56
2022-12-31T18:05:23.712Z,52.47
2022-12-31T18:08:09.546Z,52.60
2022-12-31T18:10:55.732Z,52.64
2022-12-31T18:13:41.895Z,53.03
2022-12-31T18:16:28.172Z,52.59
2022-12-31T18:19:37.984Z,52.75
2022-12-31T18:22:21.817Z,53.21
2022-12-31T18:25:10.293Z,52.74
2022-12-31T18:27:56.133Z,52.73
2022-12-31T18:30:42.469Z,52.81
2022-12-31T18:33:34.165Z,52.53
2022-12-31T18:36:22.057Z,53.40
2022-12-31T18:39:08.177Z,52.82
2022-12-31T18:41:54.290Z,53.29
2022-12-31T18:44:41.094Z,52.87
2022-12-31T18:47:26.948Z,53.19
2022-12-31T18:50:16.998Z,53.25
2022-12-31T18:53:03.053Z,53.58
2022-12-31T18:55:54.556Z,53.24
2022-12-31T18:58:41.104Z,53.10
2022-12-31T19:01:32.495Z,53.36
2022-12-31T19:04:27.242Z,53.40
2022-12-31T19:07:14.237Z,53.12
2022-12-31T19:10:00.435Z,53.35
2022-12-31T19:12:46.523Z,53.15
2022-12-31T19:15:42.534Z,53.35
2022-12-31T19:18:28.336Z,53.15
2022-12-31T19:21:19.813Z,53.39
2022-12-31T19:24:20.500Z,53.59
2022-12-31T19:27:06.415Z,53.57
2022-12-31T19:29:52.185Z,53.62
2022-12-31T19:32:37.939Z,53.81
2022-12-31T19:35:24.545Z,53.93
2022-12-31T19:38:25.099Z,53.64
2022-12-31T19:41:19.190Z,53.71
2022-12-31T19:44:05.438Z,53.79
2022-12-31T19:46:51.275Z,53.74
2022-12-31T19:49:37.277Z,53.56
2022-12-31T19:52:23.049Z,53.81
2022-12-31T19:55:13.019Z,53.78
2022-12-31T19:57:58.937Z,53.79
2022-12-31T20:00:51.567Z,53.90
2022-12-31T20:03:40.888Z,53.86
2022-12-31T20:06:26.663Z,53.85
2022-12-31T20:09:12.705Z,53.70
2022-12-31T20:11:59.007Z,53.74
2022-12-31T20:14:44.862Z,53.92
2022-12-31T20:17:31.116Z,54.15
2022-12-31T20:20:17.391Z,53.82
2022-12-31T20:23:03.591Z,54.25
2022-12-31T20:26:01.962Z,54.15
2022-12-31T20:28:48.157Z,54.15
2022-12-31T20:31:34.456Z,53.99
2022-12-31T20:34:20.392Z,54.21
2022-12-31T20:37:06.118Z,54.34
2022-12-31T20:39:52.207Z,54.03
2022-12-31T20:42:40.156Z,54.35
2022-12-31T20:45:27.069Z,54.38
2022-12-31T20:48:13.761Z,53.66
2022-12-31T20:50:59.803Z,54.32
2022-12-31T20:53:51.440Z,54.35
2022-12-31T20:56:39.376Z,53.99
2022-12-31T20:59:27.480Z,54.48
2022-12-31T21:02:39.187Z,54.03
2022-12-31T21:05:29.030Z,54.13
2022-12-31T21:08:16.632Z,54.00
2022-12-31T21:11:03.193Z,54.04
2022-12-31T21:13:49.588Z,54.16
2022-12-31T21:16:38.061Z,54.21
2022-12-31T21:19:24.328Z,54.10
2022-12-31T21:22:10.528Z,54.38
2022-12-31T21:24:56.510Z,54.63
2022-12-31T21:27:42.194Z,54.45
2022-12-31T21:30:28.015Z,54.65
2022-12-31T21:33:13.936Z,54.62
2022-12-31T21:36:04.545Z,54.57
2022-12-31T21:38:51.326Z,54.67
2022-12-31T21:41:52.673Z,54.88
2022-12-31T21:44:38.402Z,54.45
2022-12-31T21:47:47.679Z,54.13
2022-12-31T21:50:34.332Z,54.67
2022-12-31T21:53:26.288Z,54.89
2022-12-31T21:56:18.218Z,54.06
2022-12-31T21:59:23.262Z,54.26
2022-12-31T22:02:28.982Z,54.62
2022-12-31T22:05:23.177Z,54.30
2022-12-31T22:08:11.298Z,54.50
2022-12-31T22:10:57.377Z,54.45
2022-12-31T22:13:43.068Z,54.19
2022-12-31T22:16:29.028Z,54.58
2022-12-31T22:19:14.773Z,54.59
2022-12-31T22:22:00.836Z,54.49
2022-12-31T22:24:46.678Z,54.83
2022-12-31T22:27:32.506Z,54.83
2022-12-31T22:30:18.610Z,54.77
2022-12-31T22:33:04.385Z,54.54
2022-12-31T22:36:05.352Z,54.96
2022-12-31T22:38:55.521Z,55.04
2022-12-31T22:41:41.736Z,54.90
2022-12-31T22:44:27.776Z,55.14
2022-12-31T22:47:13.631Z,54.56
2022-12-31T22:49:59.905Z,54.61
2022-12-31T22:52:45.862Z,54.66
2022-12-31T22:55:31.876Z,54.76
2022-12-31T22:58:19.874Z,54.78
2022-12-31T23:01:17.084Z,55.00
2022-12-31T23:04:04.038Z,55.14
2022-12-31T23:06:50.049Z,54.82
2022-12-31T23:09:54.588Z,54.78
2022-12-31T23:12:40.781Z,55.07
2022-12-31T23:15:45.184Z,55.02
2022-12-31T23:18:49.793Z,55.07
2022-12-31T23:21:55.052Z,54.65
2022-12-31T23:24:41.275Z,55.19
2022-12-31T23:27:27.511Z,54.98
2022-12-31T23:30:13.649Z,55.60
2022-12-31T23:32:59.582Z,55.16
2022-12-31T23:35:45.800Z,55.51
2022-12-31T23:38:31.771Z,55.46
2022-12-31T23:41:20.171Z,55.26
2022-12-31T23:44:06.312Z,55.15
2022-12-31T23:46:52.509Z,54.95
2022-12-31T23:49:38.252Z,55.38
2022-12-31T23:52:24.234Z,55.54
2022-12-31T23:55:10.160Z,55.32
2022-12-31T23:57:56.034Z,55.25
